createdAt,value
2018-08-25T00:00:28.161Z,69.32
2018-08-25T00:01:28.178Z,69.51
2018-08-25T00:02:28.112Z,69.42
2018-08-25T00:03:28.192Z,69.70
2018-08-25T00:04:28.067Z,70.37
2018-08-25T00:05:28.104Z,70.37
2018-08-25T00:06:28.022Z,70.28
2018-08-25T00:07:28.013Z,69.60
2018-08-25T00:08:27.976Z,69.51
2018-08-25T00:09:28.025Z,69.42
2018-08-25T00:10:27.930Z,69.42
2018-08-25T00:11:27.937Z,69.32
2018-08-25T00:12:27.887Z,70.28
2018-08-25T00:13:27.945Z,70.47
2018-08-25T00:14:27.839Z,70.56
2018-08-25T00:15:27.856Z,70.18
2018-08-25T00:16:27.796Z,70.37
2018-08-25T00:17:27.869Z,70.66
2018-08-25T00:18:27.747Z,70.28
2018-08-25T00:19:27.780Z,70.56
2018-08-25T00:20:27.702Z,70.37
2018-08-25T00:21:27.793Z,70.66
2018-08-25T00:22:27.659Z,70.56
2018-08-25T00:23:27.707Z,70.56
2018-08-25T00:24:27.610Z,69.80
2018-08-25T00:25:27.612Z,70.09
2018-08-25T00:26:27.565Z,70.37
2018-08-25T00:27:27.629Z,70.18
2018-08-25T00:28:27.519Z,70.28
2018-08-25T00:29:27.538Z,70.28
2018-08-25T00:30:27.479Z,70.09
2018-08-25T00:31:27.547Z,71.04
2018-08-25T00:32:27.428Z,70.28
2018-08-25T00:33:27.457Z,70.28
2018-08-25T00:34:27.382Z,70.28
2018-08-25T00:35:27.471Z,70.28
2018-08-25T00:36:27.338Z,70.47
2018-08-25T00:37:27.379Z,70.37
2018-08-25T00:38:27.293Z,70.28
2018-08-25T00:39:27.291Z,70.18
2018-08-25T00:40:27.251Z,70.18
2018-08-25T00:41:27.302Z,70.56
2018-08-25T00:42:27.202Z,70.66
2018-08-25T00:43:27.215Z,70.66
2018-08-25T00:44:27.156Z,70.76
2018-08-25T00:45:27.225Z,71.14
2018-08-25T00:46:27.113Z,71.33
2018-08-25T00:47:27.135Z,70.66
2018-08-25T00:48:27.061Z,70.76
2018-08-25T00:49:27.151Z,70.56
2018-08-25T00:50:27.021Z,70.56
2018-08-25T00:51:27.061Z,70.85
2018-08-25T00:52:26.972Z,70.76
2018-08-25T00:53:26.968Z,70.28
2018-08-25T00:54:26.930Z,70.95
2018-08-25T00:55:34.996Z,70.79
2018-08-25T00:57:19.859Z,70.18
2018-08-25T00:58:19.764Z,70.09
2018-08-25T01:00:12.703Z,70.76
2018-08-25T01:01:12.615Z,70.66
2018-08-25T01:03:05.556Z,71.14
2018-08-25T01:04:05.464Z,71.04
2018-08-25T01:05:58.404Z,71.52
2018-08-25T01:06:58.317Z,71.52
2018-08-25T01:08:51.249Z,71.71
2018-08-25T01:09:51.168Z,71.23
2018-08-25T01:11:44.103Z,71.52
2018-08-25T01:12:44.019Z,71.14
2018-08-25T01:14:36.956Z,71.23
2018-08-25T01:15:36.936Z,72.09
2018-08-25T01:17:29.805Z,71.14
2018-08-25T01:18:29.713Z,71.23
2018-08-25T01:20:22.679Z,71.04
2018-08-25T01:21:22.566Z,71.62
2018-08-25T01:23:15.505Z,71.42
2018-08-25T01:24:15.415Z,71.33
2018-08-25T01:26:08.358Z,71.33
2018-08-25T01:27:08.268Z,71.52
2018-08-25T01:29:01.212Z,71.71
2018-08-25T01:30:01.124Z,71.14
2018-08-25T01:31:54.063Z,71.52
2018-08-25T01:32:53.971Z,71.62
2018-08-25T01:34:46.914Z,71.42
2018-08-25T01:35:46.824Z,71.14
2018-08-25T01:37:40.786Z,71.81
2018-08-25T01:38:39.674Z,71.42
2018-08-25T01:40:32.611Z,71.52
2018-08-25T01:41:32.529Z,71.14
2018-08-25T01:43:25.459Z,71.33
2018-08-25T01:44:25.376Z,71.91
2018-08-25T01:45:25.448Z,71.91
2018-08-25T01:46:39.946Z,72.00
2018-08-25T01:47:25.360Z,72.77
2018-08-25T01:48:25.293Z,73.34
2018-08-25T01:49:25.394Z,72.86
2018-08-25T01:50:25.241Z,73.15
2018-08-25T01:51:25.283Z,74.11
2018-08-25T01:52:25.193Z,73.44
2018-08-25T01:53:25.192Z,75.07
2018-08-25T01:54:25.151Z,74.87
2018-08-25T01:55:25.206Z,75.83
2018-08-25T01:56:25.103Z,76.31
2018-08-25T01:57:25.119Z,77.08
2018-08-25T01:58:25.054Z,76.98
2018-08-25T01:59:25.128Z,78.32
2018-08-25T02:00:25.003Z,78.47
2018-08-25T02:01:25.042Z,78.76
2018-08-25T02:02:24.970Z,79.52
2018-08-25T02:03:25.051Z,80.77
2018-08-25T02:04:24.929Z,81.15
2018-08-25T02:05:24.953Z,81.44
2018-08-25T02:06:24.874Z,82.30
2018-08-25T02:07:24.862Z,83.06
2018-08-25T02:08:24.826Z,84.31
2018-08-25T02:09:24.876Z,84.46
2018-08-25T02:10:24.776Z,85.41
2018-08-25T02:11:24.785Z,85.89
2018-08-25T02:12:24.740Z,85.99
2018-08-25T02:13:24.806Z,85.99
2018-08-25T02:14:24.691Z,87.43
2018-08-25T02:15:24.709Z,88.00
2018-08-25T02:16:24.644Z,87.81
2018-08-25T02:17:24.724Z,88.76
2018-08-25T02:18:24.596Z,89.39
2018-08-25T02:19:24.635Z,89.77
2018-08-25T02:20:24.543Z,89.58
2018-08-25T02:21:24.541Z,89.58
2018-08-25T02:22:24.503Z,90.44
2018-08-25T02:23:24.555Z,90.92
2018-08-25T02:24:24.453Z,91.68
2018-08-25T02:25:24.462Z,92.25
2018-08-25T02:26:24.412Z,93.12
2018-08-25T02:27:24.476Z,92.83
2018-08-25T02:28:24.370Z,94.07
2018-08-25T02:29:24.391Z,95.22
2018-08-25T02:30:24.319Z,96.37
2018-08-25T02:31:24.403Z,96.94
2018-08-25T02:32:24.271Z,97.52
2018-08-25T02:33:24.316Z,97.94
2018-08-25T02:34:24.225Z,98.33
2018-08-25T02:35:24.223Z,97.94
2018-08-25T02:36:24.180Z,99.09
2018-08-25T02:37:24.236Z,99.66
2018-08-25T02:38:24.130Z,98.61
2018-08-25T02:39:24.147Z,99.48
2018-08-25T02:40:24.083Z,98.85
2018-08-25T02:41:24.158Z,99.38
2018-08-25T02:42:24.051Z,99.71
2018-08-25T02:43:24.067Z,99.38
2018-08-25T02:44:23.989Z,99.85
2018-08-25T02:45:23.978Z,99.85
2018-08-25T02:46:23.945Z,99.81
2018-08-25T02:47:23.990Z,99.99
2018-08-25T02:48:23.894Z,99.99
2018-08-25T02:49:23.899Z,99.99
2018-08-25T02:50:23.851Z,99.99
2018-08-25T02:51:23.913Z,99.99
2018-08-25T02:52:23.802Z,99.99
2018-08-25T02:53:23.824Z,99.99
2018-08-25T02:54:23.754Z,99.99
2018-08-25T02:55:23.838Z,99.99
2018-08-25T02:56:23.710Z,99.99
2018-08-25T02:57:23.750Z,99.99
2018-08-25T02:58:23.660Z,99.99
2018-08-25T02:59:23.660Z,99.99
2018-08-25T03:00:23.612Z,99.99
2018-08-25T03:01:23.671Z,99.99
2018-08-25T03:02:23.566Z,99.99
2018-08-25T03:03:23.586Z,99.99
2018-08-25T03:04:23.517Z,99.99
2018-08-25T03:05:23.592Z,99.99
2018-08-25T03:06:23.472Z,99.99
2018-08-25T03:07:23.504Z,99.99
2018-08-25T03:08:23.425Z,99.99
2018-08-25T03:09:23.515Z,99.99
2018-08-25T03:10:23.379Z,99.99
2018-08-25T03:11:23.424Z,99.99
2018-08-25T03:12:23.333Z,99.99
2018-08-25T03:13:23.334Z,99.99
2018-08-25T03:14:23.284Z,99.99
2018-08-25T03:15:23.348Z,99.99
2018-08-25T03:16:23.236Z,99.99
2018-08-25T03:17:23.259Z,99.99
2018-08-25T03:18:23.187Z,99.99
2018-08-25T03:19:23.280Z,99.99
2018-08-25T03:20:23.143Z,99.99
2018-08-25T03:21:23.184Z,99.99
2018-08-25T03:22:23.099Z,99.99
2018-08-25T03:23:23.092Z,99.99
2018-08-25T03:24:23.048Z,99.99
2018-08-25T03:25:23.104Z,99.99
2018-08-25T03:26:23.005Z,99.99
2018-08-25T03:27:23.019Z,99.99
2018-08-25T03:28:22.949Z,99.99
2018-08-25T03:29:23.032Z,99.99
2018-08-25T03:30:22.910Z,99.99
2018-08-25T03:31:22.936Z,99.99
2018-08-25T03:32:22.855Z,99.99
2018-08-25T03:33:22.849Z,99.99
2018-08-25T03:34:22.810Z,99.99
2018-08-25T03:35:22.857Z,99.99
2018-08-25T03:36:22.761Z,99.99
2018-08-25T03:37:22.768Z,99.99
2018-08-25T03:38:29.858Z,99.99
2018-08-25T03:40:15.649Z,99.99
2018-08-25T03:41:15.552Z,99.99
2018-08-25T03:43:08.493Z,99.99
2018-08-25T03:44:08.476Z,99.99
2018-08-25T03:46:01.344Z,99.99
2018-08-25T03:47:01.254Z,99.99
2018-08-25T03:48:54.192Z,99.99
2018-08-25T03:49:54.103Z,99.99
2018-08-25T03:51:47.047Z,99.99
2018-08-25T03:52:46.955Z,99.99
2018-08-25T03:54:39.900Z,99.99
2018-08-25T03:55:39.807Z,99.99
2018-08-25T03:57:32.754Z,99.99
2018-08-25T03:58:32.655Z,99.99
2018-08-25T04:00:25.598Z,99.99
2018-08-25T04:01:25.568Z,99.99
2018-08-25T04:03:18.451Z,99.99
2018-08-25T04:04:18.360Z,99.99
2018-08-25T04:06:11.303Z,99.99
2018-08-25T04:07:11.212Z,99.99
2018-08-25T04:09:04.154Z,99.99
2018-08-25T04:10:04.065Z,99.99
2018-08-25T04:11:57.003Z,99.99
2018-08-25T04:12:56.913Z,99.99
2018-08-25T04:14:49.866Z,99.99
2018-08-25T04:15:49.764Z,99.99
2018-08-25T04:17:42.709Z,99.99
2018-08-25T04:18:42.617Z,99.99
2018-08-25T04:20:35.562Z,99.99
2018-08-25T04:21:35.469Z,99.99
2018-08-25T04:23:28.403Z,99.99
2018-08-25T04:24:28.313Z,99.99
2018-08-25T04:26:21.255Z,99.99
2018-08-25T04:27:21.165Z,99.99
2018-08-25T04:29:14.103Z,99.99
2018-08-25T04:30:14.014Z,99.99
2018-08-25T04:31:14.100Z,99.99
2018-08-25T04:32:13.966Z,99.99
2018-08-25T04:33:14.003Z,99.99
2018-08-25T04:34:13.921Z,99.99
2018-08-25T04:35:13.916Z,99.99
2018-08-25T04:36:13.870Z,99.99
2018-08-25T04:37:13.927Z,99.99
2018-08-25T04:38:13.824Z,99.99
2018-08-25T04:39:13.838Z,99.99
2018-08-25T04:40:13.776Z,99.99
2018-08-25T04:41:13.928Z,99.99
2018-08-25T04:42:13.728Z,99.99
2018-08-25T04:43:13.760Z,99.99
2018-08-25T04:44:13.687Z,99.99
2018-08-25T04:45:13.671Z,99.99
2018-08-25T04:46:13.631Z,99.99
2018-08-25T04:47:13.686Z,99.99
2018-08-25T04:48:13.589Z,99.99
2018-08-25T04:49:13.595Z,99.99
2018-08-25T04:50:13.539Z,99.99
2018-08-25T04:51:13.610Z,99.99
2018-08-25T04:52:13.484Z,99.99
2018-08-25T04:53:13.516Z,99.99
2018-08-25T04:54:13.436Z,99.99
2018-08-25T04:55:13.428Z,99.99
2018-08-25T04:56:13.392Z,99.99
2018-08-25T04:57:13.440Z,99.99
2018-08-25T04:58:13.344Z,99.99
2018-08-25T04:59:13.347Z,99.99
2018-08-25T05:00:13.294Z,99.99
2018-08-25T05:01:13.361Z,99.99
2018-08-25T05:02:13.245Z,99.99
2018-08-25T05:03:13.266Z,99.99
2018-08-25T05:04:13.199Z,99.99
2018-08-25T05:05:13.279Z,99.99
2018-08-25T05:06:13.142Z,99.99
2018-08-25T05:07:13.190Z,99.99
2018-08-25T05:08:13.100Z,99.99
2018-08-25T05:09:13.103Z,99.99
2018-08-25T05:10:13.049Z,99.99
2018-08-25T05:11:13.114Z,99.99
2018-08-25T05:12:13.005Z,99.99
2018-08-25T05:13:13.023Z,99.99
2018-08-25T05:14:12.955Z,99.99
2018-08-25T05:15:13.036Z,99.99
2018-08-25T05:16:12.905Z,99.99
2018-08-25T05:17:12.953Z,99.99
2018-08-25T05:18:12.853Z,99.99
2018-08-25T05:19:12.859Z,99.99
2018-08-25T05:20:12.814Z,99.99
2018-08-25T05:21:12.873Z,99.99
2018-08-25T05:22:12.758Z,99.99
2018-08-25T05:23:12.785Z,99.99
2018-08-25T05:24:12.713Z,99.99
2018-08-25T05:25:12.796Z,99.99
2018-08-25T05:26:12.665Z,99.99
2018-08-25T05:27:12.703Z,99.99
2018-08-25T05:28:12.613Z,99.99
2018-08-25T05:29:12.611Z,99.99
2018-08-25T05:30:12.563Z,99.99
2018-08-25T05:31:12.629Z,99.99
2018-08-25T05:32:12.517Z,99.99
2018-08-25T05:33:12.536Z,99.99
2018-08-25T05:34:12.467Z,99.99
2018-08-25T05:35:12.549Z,99.99
2018-08-25T05:36:12.419Z,99.99
2018-08-25T05:37:12.467Z,99.99
2018-08-25T05:38:12.366Z,99.99
2018-08-25T05:39:12.368Z,99.99
2018-08-25T05:40:12.320Z,99.99
2018-08-25T05:41:12.389Z,99.99
2018-08-25T05:42:12.271Z,99.99
2018-08-25T05:43:12.290Z,99.99
2018-08-25T05:44:12.274Z,99.99
2018-08-25T05:45:12.304Z,99.99
2018-08-25T05:46:12.177Z,99.99
2018-08-25T05:47:12.221Z,99.99
2018-08-25T05:48:12.133Z,99.99
2018-08-25T05:49:12.127Z,99.99
2018-08-25T05:50:12.077Z,99.99
2018-08-25T05:51:12.135Z,99.99
2018-08-25T05:52:12.027Z,99.99
2018-08-25T05:53:12.050Z,99.99
2018-08-25T05:54:11.983Z,99.99
2018-08-25T05:55:12.060Z,99.99
2018-08-25T05:56:11.933Z,99.99
2018-08-25T05:57:11.972Z,99.99
2018-08-25T05:58:11.887Z,99.99
2018-08-25T05:59:11.881Z,99.99
2018-08-25T06:00:11.833Z,99.99
2018-08-25T06:01:11.891Z,99.99
2018-08-25T06:02:11.782Z,99.99
2018-08-25T06:03:11.799Z,99.99
2018-08-25T06:04:11.740Z,99.99
2018-08-25T06:05:11.813Z,99.99
2018-08-25T06:06:11.695Z,99.99
2018-08-25T06:07:11.728Z,99.99
2018-08-25T06:08:11.640Z,99.99
2018-08-25T06:09:11.634Z,99.99
2018-08-25T06:10:11.592Z,99.99
2018-08-25T06:11:11.645Z,99.99
2018-08-25T06:12:11.544Z,99.99
2018-08-25T06:13:11.555Z,99.99
2018-08-25T06:14:11.493Z,99.99
2018-08-25T06:15:11.569Z,99.99
2018-08-25T06:16:11.444Z,99.99
2018-08-25T06:17:11.486Z,99.99
2018-08-25T06:18:11.396Z,99.99
2018-08-25T06:19:11.416Z,99.99
2018-08-25T06:20:11.348Z,99.99
2018-08-25T06:21:18.499Z,99.99
2018-08-25T06:23:04.267Z,99.99
2018-08-25T06:24:04.179Z,99.99
2018-08-25T06:25:57.121Z,99.99
2018-08-25T06:26:57.029Z,99.99
2018-08-25T06:28:49.971Z,99.99
2018-08-25T06:29:49.985Z,99.99
2018-08-25T06:31:42.823Z,99.99
2018-08-25T06:32:42.730Z,99.99
2018-08-25T06:34:35.672Z,99.99
2018-08-25T06:35:35.580Z,99.99
2018-08-25T06:37:28.523Z,99.99
2018-08-25T06:38:28.436Z,99.99
2018-08-25T06:40:21.375Z,99.99
2018-08-25T06:41:21.288Z,99.99
2018-08-25T06:43:14.228Z,99.99
2018-08-25T06:44:14.139Z,99.99
2018-08-25T06:46:07.078Z,99.99
2018-08-25T06:47:06.990Z,99.99
2018-08-25T06:48:59.931Z,99.99
2018-08-25T06:49:59.838Z,99.99
2018-08-25T06:51:52.779Z,99.99
2018-08-25T06:52:52.686Z,99.99
2018-08-25T06:54:45.627Z,99.99
2018-08-25T06:55:45.540Z,99.99
2018-08-25T06:57:38.479Z,99.99
2018-08-25T06:58:38.389Z,99.99
2018-08-25T07:00:31.325Z,99.99
2018-08-25T07:01:31.238Z,99.99
2018-08-25T07:03:24.180Z,99.99
2018-08-25T07:04:24.088Z,99.99
2018-08-25T07:06:17.039Z,99.99
2018-08-25T07:07:16.942Z,99.99
2018-08-25T07:09:09.883Z,99.09
2018-08-25T07:10:09.787Z,98.90
2018-08-25T07:12:02.733Z,98.13
2018-08-25T07:13:02.706Z,98.42
2018-08-25T07:14:55.582Z,98.61
2018-08-25T07:15:55.495Z,98.33
2018-08-25T07:17:48.434Z,97.28
2018-08-25T07:18:48.405Z,96.80
2018-08-25T07:20:41.288Z,97.94
2018-08-25T07:21:41.199Z,96.89
2018-08-25T07:23:34.136Z,96.13
2018-08-25T07:24:34.046Z,95.75
2018-08-25T07:26:26.987Z,95.56
2018-08-25T07:27:26.896Z,95.75
2018-08-25T07:29:19.840Z,95.79
2018-08-25T07:30:19.747Z,95.89
2018-08-25T07:32:12.760Z,95.41
2018-08-25T07:33:12.607Z,95.36
2018-08-25T07:35:05.740Z,95.61
2018-08-25T07:36:05.537Z,95.98
2018-08-25T07:37:58.516Z,95.51
2018-08-25T07:38:58.399Z,94.26
2018-08-25T07:40:51.547Z,92.64
2018-08-25T07:41:51.350Z,92.93
2018-08-25T07:43:44.339Z,92.25
2018-08-25T07:44:44.487Z,92.25
2018-08-25T07:46:37.357Z,93.31
2018-08-25T07:47:37.257Z,92.64
2018-08-25T07:49:30.375Z,92.88
2018-08-25T07:50:30.212Z,91.35
2018-08-25T07:52:23.271Z,91.92
2018-08-25T07:53:23.174Z,91.49
2018-08-25T07:55:16.120Z,91.35
2018-08-25T07:56:16.030Z,90.01
2018-08-25T07:58:08.989Z,88.86
2018-08-25T07:59:08.934Z,89.15
2018-08-25T08:01:01.832Z,89.34
2018-08-25T08:02:01.740Z,88.95
2018-08-25T08:03:54.685Z,87.71
2018-08-25T08:04:54.626Z,86.94
2018-08-25T08:06:47.536Z,88.09
2018-08-25T08:07:47.441Z,87.52
2018-08-25T08:09:40.390Z,87.52
2018-08-25T08:10:40.295Z,87.04
2018-08-25T08:12:33.345Z,85.51
2018-08-25T08:13:33.245Z,85.65
2018-08-25T08:15:26.234Z,85.27
2018-08-25T08:16:26.285Z,84.98
2018-08-25T08:18:19.155Z,82.97
2018-08-25T08:19:19.058Z,82.87
2018-08-25T08:21:12.108Z,82.97
2018-08-25T08:22:12.012Z,83.45
2018-08-25T08:24:04.997Z,83.36
2018-08-25T08:25:04.965Z,83.26
2018-08-25T08:26:58.021Z,82.78
2018-08-25T08:27:57.923Z,82.40
2018-08-25T08:29:50.974Z,81.92
2018-08-25T08:30:50.881Z,82.15
2018-08-25T08:32:43.927Z,81.96
2018-08-25T08:33:43.832Z,81.67
2018-08-25T08:35:36.887Z,80.71
2018-08-25T08:36:36.789Z,80.43
2018-08-25T08:38:29.941Z,80.52
2018-08-25T08:39:29.769Z,79.18
2018-08-25T08:41:22.797Z,80.33
2018-08-25T08:42:22.771Z,79.75
2018-08-25T08:44:15.854Z,80.71
2018-08-25T08:45:15.666Z,80.14
2018-08-25T08:47:08.818Z,79.85
2018-08-25T08:48:08.610Z,79.60
2018-08-25T08:50:01.826Z,78.93
2018-08-25T08:51:01.569Z,78.45
2018-08-25T08:52:01.657Z,78.27
2018-08-25T08:53:01.523Z,78.84
2018-08-25T08:54:01.673Z,79.03
2018-08-25T08:55:01.479Z,79.41
2018-08-25T08:56:01.579Z,79.32
2018-08-25T08:57:01.426Z,79.83
2018-08-25T08:58:01.491Z,77.82
2018-08-25T08:59:01.384Z,77.31
2018-08-25T09:00:01.401Z,77.88
2018-08-25T09:01:01.513Z,77.50
2018-08-25T09:02:01.315Z,78.07
2018-08-25T09:03:01.424Z,77.59
2018-08-25T09:04:01.268Z,78.07
2018-08-25T09:05:01.243Z,77.50
2018-08-25T09:06:01.251Z,77.97
2018-08-25T09:07:01.199Z,77.15
2018-08-25T09:08:01.264Z,77.73
2018-08-25T09:09:01.160Z,77.34
2018-08-25T09:10:01.174Z,76.48
2018-08-25T09:11:01.108Z,76.14
2018-08-25T09:12:01.194Z,76.62
2018-08-25T09:13:01.061Z,76.23
2018-08-25T09:14:01.101Z,75.46
2018-08-25T09:15:01.025Z,75.18
2018-08-25T09:16:01.011Z,75.27
2018-08-25T09:17:00.973Z,75.65
2018-08-25T09:18:01.025Z,73.93
2018-08-25T09:19:00.932Z,74.54
2018-08-25T09:20:00.937Z,74.16
2018-08-25T09:21:00.881Z,72.91
2018-08-25T09:22:00.949Z,73.20
2018-08-25T09:23:00.839Z,73.97
2018-08-25T09:24:00.863Z,73.49
2018-08-25T09:25:00.793Z,72.72
2018-08-25T09:26:00.875Z,71.57
2018-08-25T09:27:00.745Z,72.53
2018-08-25T09:28:00.786Z,73.39
2018-08-25T09:29:00.705Z,74.93
2018-08-25T09:30:00.705Z,72.85
2018-08-25T09:31:00.664Z,72.31
2018-08-25T09:32:00.711Z,70.97
2018-08-25T09:33:00.613Z,70.29
2018-08-25T09:34:00.628Z,69.62
2018-08-25T09:35:00.570Z,71.35
2018-08-25T09:36:00.751Z,70.62
2018-08-25T09:37:00.605Z,69.85
2018-08-25T09:38:00.553Z,69.18
2018-08-25T09:39:00.481Z,68.31
2018-08-25T09:40:00.575Z,68.89
2018-08-25T09:41:00.437Z,69.46
2018-08-25T09:42:00.481Z,69.12
2018-08-25T09:43:00.401Z,67.86
2018-08-25T09:44:00.397Z,66.20
2018-08-25T09:45:00.351Z,67.86
2018-08-25T09:46:00.416Z,67.00
2018-08-25T09:47:00.351Z,65.75
2018-08-25T09:48:00.320Z,65.56
2018-08-25T09:49:00.263Z,65.05
2018-08-25T09:50:00.337Z,66.30
2018-08-25T09:51:00.218Z,66.36
2018-08-25T09:52:00.237Z,68.47
2018-08-25T09:53:00.173Z,68.24
2018-08-25T09:54:00.263Z,70.45
2018-08-25T09:55:00.134Z,69.05
2018-08-25T09:56:00.175Z,68.95
2018-08-25T09:57:00.089Z,68.41
2018-08-25T09:58:00.215Z,67.68
2018-08-25T09:59:00.054Z,67.90
2018-08-25T10:00:00.131Z,66.46
2018-08-25T10:01:00.003Z,66.10
2018-08-25T10:02:00.016Z,65.91
2018-08-25T10:02:59.961Z,65.33
2018-08-25T10:04:00.031Z,63.44
2018-08-25T10:04:59.914Z,61.80
2018-08-25T10:05:59.937Z,60.39
2018-08-25T10:06:59.885Z,61.81
2018-08-25T10:07:59.949Z,62.58
2018-08-25T10:08:59.831Z,63.73
2018-08-25T10:09:59.863Z,62.68
2018-08-25T10:10:59.893Z,64.02
2018-08-25T10:11:59.876Z,64.05
2018-08-25T10:12:59.743Z,62.41
2018-08-25T10:13:59.788Z,62.19
2018-08-25T10:14:59.704Z,61.91
2018-08-25T10:15:59.696Z,62.48
2018-08-25T10:16:59.728Z,63.15
2018-08-25T10:17:59.713Z,64.12
2018-08-25T10:18:59.624Z,64.63
2018-08-25T10:19:59.604Z,66.49
2018-08-25T10:20:59.578Z,63.02
2018-08-25T10:21:59.636Z,61.71
2018-08-25T10:22:59.571Z,61.22
2018-08-25T10:23:59.549Z,61.42
2018-08-25T10:24:59.501Z,60.52
2018-08-25T10:25:59.561Z,62.06
2018-08-25T10:26:59.450Z,63.12
2018-08-25T10:27:59.476Z,63.38
2018-08-25T10:28:59.432Z,64.25
2018-08-25T10:29:59.490Z,63.95
2018-08-25T10:30:59.369Z,64.50
2018-08-25T10:31:59.399Z,64.69
2018-08-25T10:32:59.329Z,65.53
2018-08-25T10:33:59.415Z,65.91
2018-08-25T10:34:59.288Z,66.16
2018-08-25T10:35:59.325Z,67.00
2018-08-25T10:36:59.246Z,68.08
2018-08-25T10:37:59.241Z,68.57
2018-08-25T10:38:59.204Z,68.12
2018-08-25T10:39:59.265Z,66.61
2018-08-25T10:40:59.163Z,66.46
2018-08-25T10:41:59.185Z,64.66
2018-08-25T10:42:59.116Z,63.31
2018-08-25T10:43:59.177Z,62.29
2018-08-25T10:44:59.079Z,60.75
2018-08-25T10:45:59.089Z,61.32
2018-08-25T10:46:59.032Z,61.55
2018-08-25T10:47:59.130Z,60.39
2018-08-25T10:48:58.996Z,59.91
2018-08-25T10:49:59.015Z,59.72
2018-08-25T10:50:58.954Z,59.72
2018-08-25T10:51:59.029Z,59.33
2018-08-25T10:52:58.909Z,59.69
2018-08-25T10:53:59.001Z,58.82
2018-08-25T10:54:58.870Z,59.97
2018-08-25T10:55:58.955Z,60.91
2018-08-25T10:56:58.827Z,61.19
2018-08-25T10:57:58.868Z,60.81
2018-08-25T10:58:58.787Z,61.46
2018-08-25T10:59:58.882Z,62.61
2018-08-25T11:00:58.895Z,62.80
2018-08-25T11:01:58.794Z,64.05
2018-08-25T11:02:58.706Z,64.69
2018-08-25T11:03:58.709Z,65.59
2018-08-25T11:04:58.668Z,65.56
2018-08-25T11:05:58.721Z,63.83
2018-08-25T11:06:58.625Z,63.48
2018-08-25T11:07:58.636Z,63.76
2018-08-25T11:08:58.646Z,64.76
2018-08-25T11:09:58.646Z,62.57
2018-08-25T11:10:58.544Z,62.96
2018-08-25T11:11:58.557Z,62.00
2018-08-25T11:12:58.501Z,62.90
2018-08-25T11:13:58.571Z,61.10
2018-08-25T11:14:58.462Z,61.48
2018-08-25T11:15:58.483Z,59.78
2018-08-25T11:16:58.421Z,58.85
2018-08-25T11:17:58.498Z,59.52
2018-08-25T11:18:58.386Z,60.55
2018-08-25T11:19:58.407Z,61.29
2018-08-25T11:20:58.341Z,62.38
2018-08-25T11:21:58.421Z,61.39
2018-08-25T11:22:58.303Z,60.75
2018-08-25T11:23:58.336Z,60.55
2018-08-25T11:24:58.266Z,58.92
2018-08-25T11:25:58.351Z,60.10
2018-08-25T11:26:58.223Z,59.45
2018-08-25T11:27:58.260Z,59.07
2018-08-25T11:28:58.185Z,58.59
2018-08-25T11:29:58.275Z,59.04
2018-08-25T11:30:58.150Z,58.82
2018-08-25T11:31:58.189Z,60.52
2018-08-25T11:32:58.113Z,60.42
2018-08-25T11:33:58.101Z,61.00
2018-08-25T11:34:58.091Z,62.80
2018-08-25T11:35:58.112Z,62.96
2018-08-25T11:36:58.024Z,63.45
2018-08-25T11:37:58.089Z,64.02
2018-08-25T11:38:57.992Z,64.89
2018-08-25T11:39:58.054Z,64.69
2018-08-25T11:40:57.961Z,64.69
2018-08-25T11:41:57.953Z,65.46
2018-08-25T11:42:57.907Z,65.01
2018-08-25T11:43:57.929Z,64.56
2018-08-25T11:44:57.975Z,64.21
2018-08-25T11:45:57.848Z,62.09
2018-08-25T11:46:57.880Z,60.10
2018-08-25T11:47:57.808Z,59.40
2018-08-25T11:48:57.903Z,59.88
2018-08-25T11:49:57.763Z,59.59
2018-08-25T11:50:57.821Z,60.62
2018-08-25T11:51:57.728Z,60.91
2018-08-25T11:52:57.723Z,61.84
2018-08-25T11:53:57.694Z,61.71
2018-08-25T11:54:57.739Z,63.22
2018-08-25T11:55:57.644Z,64.53
2018-08-25T11:56:57.649Z,64.72
2018-08-25T11:57:57.606Z,64.63
2018-08-25T11:58:57.662Z,65.69
2018-08-25T11:59:57.565Z,66.03
2018-08-25T12:00:57.569Z,67.22
2018-08-25T12:01:57.516Z,67.07
2018-08-25T12:02:57.595Z,66.20
2018-08-25T12:03:57.482Z,66.33
2018-08-25T12:04:57.480Z,66.07
2018-08-25T12:05:57.445Z,64.18
2018-08-25T12:06:57.517Z,63.60
2018-08-25T12:07:57.409Z,64.02
2018-08-25T12:08:57.424Z,64.76
2018-08-25T12:09:57.367Z,65.81
2018-08-25T12:10:57.444Z,67.35
2018-08-25T12:11:57.327Z,66.77
2018-08-25T12:12:57.357Z,67.38
2018-08-25T12:13:57.277Z,67.54
2018-08-25T12:14:57.368Z,67.48
2018-08-25T12:15:57.248Z,67.51
2018-08-25T12:16:57.279Z,66.65
2018-08-25T12:17:57.204Z,65.53
2018-08-25T12:18:57.298Z,64.95
2018-08-25T12:19:57.156Z,65.94
2018-08-25T12:20:57.204Z,65.56
2018-08-25T12:21:57.132Z,65.69
2018-08-25T12:22:57.117Z,63.25
2018-08-25T12:23:57.098Z,64.02
2018-08-25T12:24:57.129Z,63.67
2018-08-25T12:25:57.037Z,62.51
2018-08-25T12:26:57.043Z,61.55
2018-08-25T12:27:56.994Z,61.55
2018-08-25T12:28:57.059Z,61.55
2018-08-25T12:29:56.959Z,61.74
2018-08-25T12:30:56.972Z,61.32
2018-08-25T12:31:56.915Z,62.54
2018-08-25T12:32:56.983Z,62.93
2018-08-25T12:33:56.883Z,63.57
2018-08-25T12:34:57.927Z,64.34
2018-08-25T12:35:56.837Z,64.73
2018-08-25T12:36:56.911Z,65.84
2018-08-25T12:37:56.806Z,65.84
2018-08-25T12:38:56.830Z,66.81
2018-08-25T12:39:56.756Z,67.38
2018-08-25T12:40:56.834Z,67.25
2018-08-25T12:41:56.714Z,67.74
2018-08-25T12:42:56.747Z,68.79
2018-08-25T12:43:56.673Z,69.08
2018-08-25T12:44:56.764Z,69.95
2018-08-25T12:45:56.655Z,69.18
2018-08-25T12:46:56.660Z,68.89
2018-08-25T12:47:56.616Z,69.56
2018-08-25T12:48:56.745Z,68.95
2018-08-25T12:49:56.558Z,70.29
2018-08-25T12:50:56.600Z,70.07
2018-08-25T12:51:56.515Z,69.40
2018-08-25T12:52:56.509Z,69.40
2018-08-25T12:53:56.472Z,68.63
2018-08-25T12:54:56.525Z,69.01
2018-08-25T12:55:56.431Z,68.85
2018-08-25T12:56:56.435Z,67.13
2018-08-25T12:57:56.390Z,66.90
2018-08-25T12:58:56.452Z,66.90
2018-08-25T12:59:56.347Z,67.00
2018-08-25T13:00:56.362Z,66.93
2018-08-25T13:01:56.307Z,66.64
2018-08-25T13:02:56.379Z,66.26
2018-08-25T13:03:56.262Z,65.62
2018-08-25T13:04:56.299Z,65.23
2018-08-25T13:05:56.225Z,65.56
2018-08-25T13:06:56.324Z,64.34
2018-08-25T13:07:56.182Z,61.74
2018-08-25T13:08:56.213Z,62.23
2018-08-25T13:09:56.141Z,63.28
2018-08-25T13:10:56.232Z,62.26
2018-08-25T13:11:56.097Z,60.21
2018-08-25T13:12:56.179Z,60.72
2018-08-25T13:13:56.056Z,61.58
2018-08-25T13:14:56.054Z,61.22
2018-08-25T13:15:56.008Z,60.75
2018-08-25T13:16:56.068Z,61.42
2018-08-25T13:17:55.977Z,60.97
2018-08-25T13:18:55.995Z,59.81
2018-08-25T13:19:55.932Z,59.49
2018-08-25T13:20:55.999Z,60.52
2018-08-25T13:21:55.966Z,60.49
2018-08-25T13:22:55.905Z,59.69
2018-08-25T13:23:55.861Z,59.76
2018-08-25T13:24:55.978Z,60.72
2018-08-25T13:25:55.812Z,60.72
2018-08-25T13:26:55.833Z,61.01
2018-08-25T13:27:55.772Z,62.52
2018-08-25T13:28:55.847Z,63.48
2018-08-25T13:29:55.730Z,64.63
2018-08-25T13:30:55.830Z,65.46
2018-08-25T13:31:55.692Z,66.42
2018-08-25T13:32:55.776Z,68.12
2018-08-25T13:33:55.651Z,68.79
2018-08-25T13:34:56.710Z,70.51
2018-08-25T13:35:55.605Z,72.78
2018-08-25T13:36:55.699Z,74.22
2018-08-25T13:37:55.570Z,75.95
2018-08-25T13:38:55.611Z,76.71
2018-08-25T13:39:55.568Z,76.90
2018-08-25T13:40:55.526Z,77.86
2018-08-25T13:41:55.484Z,77.76
2018-08-25T13:42:55.536Z,78.15
2018-08-25T13:43:55.440Z,76.62
2018-08-25T13:44:55.457Z,76.23
2018-08-25T13:45:55.398Z,77.19
2018-08-25T13:46:55.461Z,76.52
2018-08-25T13:47:55.356Z,77.00
2018-08-25T13:48:55.373Z,77.38
2018-08-25T13:49:55.314Z,77.04
2018-08-25T13:50:55.404Z,76.56
2018-08-25T13:51:55.269Z,76.56
2018-08-25T13:52:55.301Z,76.40
2018-08-25T13:53:55.233Z,75.48
2018-08-25T13:54:55.317Z,75.29
2018-08-25T13:55:55.184Z,74.75
2018-08-25T13:56:55.227Z,73.73
2018-08-25T13:57:55.170Z,71.75
2018-08-25T13:58:55.140Z,69.34
2018-08-25T13:59:55.107Z,69.92
2018-08-25T14:00:55.151Z,70.30
2018-08-25T14:01:55.061Z,69.40
2018-08-25T14:02:55.062Z,70.46
2018-08-25T14:03:55.016Z,69.60
2018-08-25T14:04:55.075Z,69.69
2018-08-25T14:05:54.979Z,68.83
2018-08-25T14:06:54.994Z,68.44
2018-08-25T14:07:54.939Z,69.21
2018-08-25T14:08:55.000Z,69.21